Time;durP1;ratioP1;P1;durP2;ratioP2;P2;SDS_P1;SDS_P2;PMS_P1;PMS_P2;Temp;Humidity;BMP_temperature;BMP_pressure;BME280_temperature;BME280_humidity;BME280_pressure;Samples;Min_cycle;Max_cycle;Signal;HPM_P1;HPM_P2
2022/04/25 00:01:26;;;;;;;14.07;12.57;;;12.70;99.60;;;;;;7370290;19;20379;-48
2022/04/25 00:04:00;;;;;;;13.63;11.47;;;12.70;99.70;;;;;;7373355;19;21123;-48
2022/04/25 00:06:32;;;;;;;15.20;11.30;;;12.70;99.70;;;;;;7375883;19;20418;-48
2022/04/25 00:09:05;;;;;;;16.43;12.03;;;12.70;99.70;;;;;;7374284;19;20443;-48
2022/04/25 00:11:34;;;;;;;21.00;12.73;;;12.70;99.60;;;;;;7373061;19;20497;-48
2022/04/25 00:14:07;;;;;;;16.43;12.77;;;12.80;99.50;;;;;;7377035;19;20456;-49
2022/04/25 00:16:39;;;;;;;15.50;12.40;;;12.80;99.20;;;;;;7371853;19;20951;-48
2022/04/25 00:19:11;;;;;;;16.40;11.50;;;12.80;99.30;;;;;;7366272;19;20523;-48
2022/04/25 00:21:40;;;;;;;18.57;13.83;;;12.70;99.20;;;;;;7372271;19;20431;-48
2022/04/25 00:24:10;;;;;;;16.27;12.30;;;12.60;99.60;;;;;;7368541;19;20527;-48
2022/04/25 00:26:40;;;;;;;14.70;12.17;;;12.60;99.20;;;;;;7370710;19;20819;-48
2022/04/25 00:29:17;;;;;;;18.23;13.40;;;12.60;99.60;;;;;;7369982;19;20395;-48
2022/04/25 00:31:46;;;;;;;17.10;13.37;;;12.60;99.30;;;;;;7371776;19;20419;-48
2022/04/25 00:34:16;;;;;;;18.60;13.47;;;12.60;99.60;;;;;;7376922;19;20769;-48
2022/04/25 00:36:45;;;;;;;19.37;14.17;;;12.50;99.60;;;;;;7369906;19;20421;-49
2022/04/25 00:39:18;;;;;;;17.40;14.10;;;12.60;99.60;;;;;;7372478;19;20774;-48
2022/04/25 00:41:47;;;;;;;16.77;13.50;;;12.60;99.00;;;;;;7371631;19;20401;-48
2022/04/25 00:44:20;;;;;;;18.23;14.60;;;12.60;99.60;;;;;;7373539;19;20392;-49
2022/04/25 00:46:51;;;;;;;18.27;14.20;;;12.70;99.20;;;;;;7370156;19;20471;-48
2022/04/25 00:49:24;;;;;;;18.27;14.80;;;12.70;99.20;;;;;;7376945;19;20400;-48
2022/04/25 00:51:54;;;;;;;17.63;14.30;;;12.70;98.90;;;;;;7368825;19;20776;-40
2022/04/25 00:54:24;;;;;;;18.00;14.60;;;12.70;98.80;;;;;;7374187;19;20954;-40
2022/04/25 00:56:54;;;;;;;18.70;15.63;;;12.60;98.70;;;;;;7375167;19;21104;-40
2022/04/25 00:59:28;;;;;;;18.13;15.00;;;12.70;98.60;;;;;;7368735;19;20375;-40
2022/04/25 01:02:00;;;;;;;22.37;16.67;;;12.80;98.40;;;;;;7372363;19;21052;-40
2022/04/25 01:04:32;;;;;;;18.03;15.30;;;12.70;97.30;;;;;;7369839;19;20384;-40
2022/04/25 01:07:04;;;;;;;20.73;16.37;;;12.60;97.20;;;;;;7366939;19;20412;-40
2022/04/25 01:09:33;;;;;;;22.50;16.37;;;12.60;97.70;;;;;;7371535;19;20387;-40
2022/04/25 01:12:03;;;;;;;21.53;17.00;;;12.60;97.60;;;;;;7374929;19;20416;-40
2022/04/25 01:14:37;;;;;;;21.97;17.17;;;12.50;97.90;;;;;;7366873;19;20535;-40
2022/04/25 01:17:07;;;;;;;22.80;16.73;;;12.40;97.80;;;;;;7375278;19;20412;-40
2022/04/25 01:19:39;;;;;;;21.67;16.63;;;12.40;98.00;;;;;;7364015;19;20487;-48
2022/04/25 01:22:12;;;;;;;20.77;16.40;;;12.40;98.00;;;;;;7372928;19;20417;-48
2022/04/25 01:27:30;;;;;;;22.20;17.43;;;12.30;98.10;;;;;;7368322;19;20392;-49
2022/04/25 01:30:00;;;;;;;23.17;17.03;;;12.30;97.90;;;;;;7368342;19;20416;-49
2022/04/25 01:32:29;;;;;;;17.63;15.67;;;12.20;98.10;;;;;;7364215;19;20782;-48
2022/04/25 01:35:03;;;;;;;19.73;15.00;;;12.20;97.90;;;;;;7373333;19;20407;-48
2022/04/25 01:37:33;;;;;;;17.80;14.93;;;12.10;98.10;;;;;;7370400;19;20771;-48
2022/04/25 01:40:08;;;;;;;17.47;14.90;;;12.10;98.30;;;;;;7364603;19;20404;-48
2022/04/25 01:42:40;;;;;;;20.27;16.00;;;12.10;98.20;;;;;;7370387;19;21072;-48
2022/04/25 01:45:12;;;;;;;20.87;16.10;;;12.00;98.40;;;;;;7364010;19;20451;-49
2022/04/25 01:47:44;;;;;;;20.27;16.10;;;12.00;97.80;;;;;;7367247;19;20380;-48
2022/04/25 01:50:14;;;;;;;19.23;16.10;;;12.10;97.50;;;;;;7372061;19;20368;-48
2022/04/25 01:52:46;;;;;;;22.23;17.07;;;12.00;97.10;;;;;;7370446;19;20388;-48
2022/04/25 01:55:21;;;;;;;23.53;18.60;;;12.10;96.90;;;;;;7367270;19;20472;-48
2022/04/25 01:57:50;;;;;;;21.53;16.87;;;12.20;96.60;;;;;;7363995;19;20950;-49
2022/04/25 02:00:22;;;;;;;23.00;18.23;;;12.20;96.30;;;;;;7371626;19;20932;-48
2022/04/25 02:02:52;;;;;;;23.27;18.47;;;12.10;96.20;;;;;;7374249;19;20372;-48
2022/04/25 02:05:26;;;;;;;22.67;17.70;;;12.10;96.30;;;;;;7367106;19;20766;-48
2022/04/25 02:07:56;;;;;;;23.20;17.87;;;12.10;96.30;;;;;;7369406;19;20450;-48
2022/04/25 02:10:30;;;;;;;22.10;17.77;;;12.10;96.20;;;;;;7368408;19;20380;-48
2022/04/25 02:13:00;;;;;;;26.13;20.23;;;12.20;96.20;;;;;;7370211;19;20383;-48
2022/04/25 02:15:30;;;;;;;21.27;16.77;;;12.20;96.00;;;;;;7362063;19;20372;-48
2022/04/25 02:18:00;;;;;;;19.97;15.70;;;12.20;95.70;;;;;;7364889;19;20824;-48
2022/04/25 02:20:29;;;;;;;24.80;18.87;;;12.10;95.90;;;;;;7368811;19;20800;-48
2022/04/25 02:22:59;;;;;;;24.53;18.90;;;12.10;96.00;;;;;;7370169;19;21331;-48
2022/04/25 02:25:31;;;;;;;22.83;17.90;;;12.10;95.60;;;;;;7369342;19;20371;-48
2022/04/25 02:28:01;;;;;;;23.77;17.90;;;12.20;95.70;;;;;;7369558;19;21128;-48
2022/04/25 02:30:30;;;;;;;22.70;16.97;;;12.20;96.00;;;;;;7368652;19;20412;-48
2022/04/25 02:33:00;;;;;;;25.33;17.80;;;12.30;95.30;;;;;;7366627;19;20405;-48
2022/04/25 02:35:29;;;;;;;25.83;18.70;;;12.20;95.00;;;;;;7370199;19;20415;-48
2022/04/25 02:37:59;;;;;;;21.30;17.67;;;12.20;95.30;;;;;;7368934;19;20455;-47
2022/04/25 02:40:31;;;;;;;20.50;16.43;;;12.20;95.80;;;;;;7368957;19;20390;-48
2022/04/25 02:43:02;;;;;;;20.67;17.23;;;12.20;95.20;;;;;;7373138;19;20365;-48
2022/04/25 02:45:35;;;;;;;22.87;17.93;;;12.20;95.50;;;;;;7367907;19;20376;-47
2022/04/25 02:48:04;;;;;;;22.70;16.53;;;12.20;95.70;;;;;;7372571;19;20938;-48
2022/04/25 02:50:34;;;;;;;23.00;16.83;;;12.20;95.40;;;;;;7377789;19;21077;-48
2022/04/25 02:53:03;;;;;;;24.17;17.73;;;12.20;95.20;;;;;;7375067;19;20869;-48
2022/04/25 02:55:35;;;;;;;24.17;18.77;;;12.10;95.70;;;;;;7375124;19;24422;-49
2022/04/25 02:58:05;;;;;;;22.13;17.10;;;12.10;95.80;;;;;;7375472;19;20906;-48
2022/04/25 03:00:34;;;;;;;23.17;19.10;;;12.10;95.60;;;;;;7369254;19;20401;-48
2022/04/25 03:03:04;;;;;;;21.70;16.67;;;12.20;95.50;;;;;;7374025;19;20929;-48
2022/04/25 03:05:33;;;;;;;22.57;18.87;;;12.20;95.50;;;;;;7379721;19;21213;-48
2022/04/25 03:08:03;;;;;;;23.67;18.27;;;12.20;95.50;;;;;;7378766;19;20416;-48
2022/04/25 03:10:35;;;;;;;21.07;16.20;;;12.10;95.50;;;;;;7373552;19;20405;-48
2022/04/25 03:13:05;;;;;;;26.00;16.77;;;12.00;96.00;;;;;;7370443;19;20416;-48
2022/04/25 03:15:38;;;;;;;21.80;17.77;;;12.00;96.10;;;;;;7373573;19;20412;-48
2022/04/25 03:18:08;;;;;;;26.40;17.90;;;12.00;96.10;;;;;;7372455;19;21030;-47
2022/04/25 03:20:40;;;;;;;22.03;18.60;;;12.10;96.40;;;;;;7377821;19;20531;-48
2022/04/25 03:23:10;;;;;;;22.30;17.37;;;12.00;96.20;;;;;;7374534;19;20415;-48
2022/04/25 03:25:45;;;;;;;22.40;18.27;;;12.00;96.30;;;;;;7372694;19;20800;-47
2022/04/25 03:28:18;;;;;;;22.13;17.23;;;11.90;96.30;;;;;;7373212;19;20407;-48
2022/04/25 03:30:50;;;;;;;25.63;18.80;;;11.90;96.70;;;;;;7367122;19;21092;-40
2022/04/25 03:33:19;;;;;;;25.07;19.40;;;11.80;96.80;;;;;;7364162;19;20404;-40
2022/04/25 03:35:51;;;;;;;25.70;18.27;;;11.80;96.90;;;;;;7376174;19;20380;-40
2022/04/25 03:38:21;;;;;;;23.90;18.07;;;11.70;96.90;;;;;;7378320;19;20412;-40
2022/04/25 03:40:54;;;;;;;21.67;17.77;;;11.70;96.90;;;;;;7369322;19;20412;-40
2022/04/25 03:43:26;;;;;;;25.27;18.10;;;11.70;97.00;;;;;;7373548;19;20451;-40
2022/04/25 03:45:58;;;;;;;24.00;17.60;;;11.70;97.20;;;;;;7371752;19;21111;-40
2022/04/25 03:48:29;;;;;;;24.17;18.30;;;11.70;97.10;;;;;;7376550;19;21287;-39
2022/04/25 03:50:59;;;;;;;29.13;19.83;;;11.60;97.80;;;;;;7380861;19;20377;-39
2022/04/25 03:53:29;;;;;;;29.27;20.20;;;11.50;98.00;;;;;;7374925;19;20376;-39
2022/04/25 03:58:48;;;;;;;29.27;20.30;;;10.90;99.90;;;;;;7374779;19;20423;-39
2022/04/25 04:01:18;;;;;;;26.95;19.20;;;10.30;99.90;;;;;;7374090;19;20376;-47
2022/04/25 04:03:47;;;;;;;29.65;20.35;;;10.30;99.90;;;;;;7377095;19;20124;-47
2022/04/25 04:06:17;;;;;;;28.05;21.50;;;10.20;99.90;;;;;;7372433;19;20139;-48
2022/04/25 04:08:48;;;;;;;29.63;20.08;;;10.10;99.90;;;;;;7371773;19;20514;-48
2022/04/25 04:11:21;;;;;;;29.00;20.97;;;10.30;99.90;;;;;;7357439;19;20410;-48
2022/04/25 04:13:55;;;;;;;28.98;20.58;;;10.40;99.90;;;;;;7358694;19;20415;-48
2022/04/25 04:16:27;;;;;;;30.07;20.57;;;10.60;99.90;;;;;;7374105;19;20504;-48
2022/04/25 04:18:56;;;;;;;27.30;19.33;;;10.70;99.90;;;;;;7371562;19;20428;-48
2022/04/25 04:21:28;;;;;;;30.13;20.23;;;10.70;99.90;;;;;;7378068;19;20372;-48
2022/04/25 04:23:59;;;;;;;28.53;20.97;;;10.70;99.90;;;;;;7377758;19;20421;-48
2022/04/25 04:26:31;;;;;;;30.87;21.00;;;10.70;99.90;;;;;;7379792;19;20388;-48
2022/04/25 04:29:00;;;;;;;26.38;19.50;;;10.80;99.90;;;;;;7376833;19;20527;-48
2022/04/25 04:31:30;;;;;;;30.57;19.83;;;10.90;99.90;;;;;;7376621;19;20147;-48
2022/04/25 04:33:59;;;;;;;31.80;20.55;;;10.90;99.90;;;;;;7377602;19;20770;-48
2022/04/25 04:36:29;;;;;;;26.70;19.57;;;11.00;99.90;;;;;;7378769;19;20272;-48
2022/04/25 04:38:58;;;;;;;28.70;19.97;;;11.00;99.90;;;;;;7378299;19;20408;-48
2022/04/25 04:41:30;;;;;;;31.40;20.13;;;11.00;99.90;;;;;;7376005;19;20450;-48
2022/04/25 04:44:00;;;;;;;27.27;18.67;;;10.90;99.90;;;;;;7378898;19;20384;-48
2022/04/25 04:46:32;;;;;;;27.47;19.73;;;11.00;99.90;;;;;;7372887;19;20443;-48
2022/04/25 04:49:07;;;;;;;27.50;19.50;;;11.00;99.90;;;;;;7373329;19;20384;-48
2022/04/25 04:51:36;;;;;;;32.83;21.00;;;10.90;99.90;;;;;;7379699;19;20454;-49
2022/04/25 04:54:08;;;;;;;28.67;20.47;;;11.00;99.90;;;;;;7372467;19;20372;-48
2022/04/25 04:56:42;;;;;;;28.20;18.20;;;11.10;99.90;;;;;;7380040;19;20853;-48
2022/04/25 04:59:14;;;;;;;26.90;18.87;;;11.10;99.90;;;;;;7375914;19;20424;-48
2022/04/25 05:01:43;;;;;;;24.20;18.87;;;11.00;99.90;;;;;;7377661;19;20404;-48
2022/04/25 05:04:15;;;;;;;25.77;18.10;;;11.00;99.90;;;;;;7376285;19;20368;-49
2022/04/25 05:06:45;;;;;;;26.53;19.77;;;11.10;99.90;;;;;;7374269;19;20423;-48
2022/04/25 05:09:16;;;;;;;26.67;19.63;;;11.10;99.90;;;;;;7377088;19;20922;-48
2022/04/25 05:11:48;;;;;;;32.17;20.13;;;11.20;99.90;;;;;;7375103;19;20373;-49
2022/04/25 05:14:20;;;;;;;28.20;21.37;;;11.20;99.90;;;;;;7370837;19;20372;-48
2022/04/25 05:16:52;;;;;;;27.37;19.30;;;11.20;99.90;;;;;;7374803;19;20394;-48
2022/04/25 05:19:21;;;;;;;29.80;20.63;;;11.40;99.90;;;;;;7374745;19;20515;-48
2022/04/25 05:21:56;;;;;;;27.30;19.40;;;11.30;99.90;;;;;;7376909;19;20889;-48
2022/04/25 05:24:26;;;;;;;26.47;19.90;;;11.40;99.90;;;;;;7372635;19;20855;-48
2022/04/25 05:27:00;;;;;;;28.83;20.30;;;11.50;99.90;;;;;;7378659;19;20412;-48
2022/04/25 05:29:32;;;;;;;28.30;19.57;;;11.40;99.90;;;;;;7374340;19;20848;-49
2022/04/25 05:32:02;;;;;;;27.53;20.00;;;11.40;99.90;;;;;;7376576;19;20929;-48
2022/04/25 05:34:31;;;;;;;31.27;22.83;;;11.30;99.90;;;;;;7376787;19;20453;-48
2022/04/25 05:37:00;;;;;;;29.27;20.47;;;11.30;99.90;;;;;;7378883;19;20508;-48
2022/04/25 05:39:30;;;;;;;30.73;21.13;;;11.30;99.90;;;;;;7376336;19;20391;-50
2022/04/25 05:42:03;;;;;;;31.20;20.90;;;11.30;99.90;;;;;;7373718;19;20468;-48
2022/04/25 05:44:36;;;;;;;30.43;20.67;;;11.50;99.90;;;;;;7371512;19;20941;-50
2022/04/25 05:47:10;;;;;;;29.40;19.90;;;11.60;99.70;;;;;;7375846;19;20375;-48
2022/04/25 05:52:24;;;;;;;25.87;18.00;;;12.10;98.80;;;;;;7375805;19;20376;-49
2022/04/25 05:54:53;;;;;;;24.47;19.13;;;12.20;97.40;;;;;;7378479;19;20785;-48
2022/04/25 05:57:25;;;;;;;25.30;18.77;;;12.20;97.10;;;;;;7377937;19;20995;-49
2022/04/25 05:59:55;;;;;;;21.97;16.40;;;12.30;97.50;;;;;;7373628;19;20416;-48
2022/04/25 06:02:24;;;;;;;23.90;18.30;;;12.50;96.80;;;;;;7374605;19;21317;-49
2022/04/25 06:04:54;;;;;;;19.67;15.20;;;12.60;96.20;;;;;;7377481;19;21065;-48
2022/04/25 06:07:23;;;;;;;23.23;16.03;;;12.70;95.30;;;;;;7370050;19;20782;-49
2022/04/25 06:09:53;;;;;;;21.00;16.27;;;12.90;94.90;;;;;;7375925;19;20408;-49
2022/04/25 06:12:25;;;;;;;21.50;16.63;;;13.10;94.80;;;;;;7374210;19;20376;-48
2022/04/25 06:14:57;;;;;;;22.07;16.70;;;13.20;94.30;;;;;;7370829;19;20477;-48
2022/04/25 06:17:26;;;;;;;21.70;15.97;;;13.30;93.50;;;;;;7374000;19;20373;-49
2022/04/25 06:19:56;;;;;;;23.03;16.53;;;13.40;92.90;;;;;;7374748;19;21040;-48
2022/04/25 06:22:25;;;;;;;20.47;16.50;;;13.50;93.00;;;;;;7376622;19;20420;-48
2022/04/25 06:25:00;;;;;;;18.33;16.10;;;13.50;92.40;;;;;;7372624;19;20416;-48
2022/04/25 06:27:34;;;;;;;18.70;15.23;;;13.30;91.90;;;;;;7376764;19;20420;-48
2022/04/25 06:30:07;;;;;;;18.33;15.00;;;13.10;92.10;;;;;;7376203;19;20399;-48
2022/04/25 06:32:39;;;;;;;17.37;13.70;;;13.20;93.00;;;;;;7375990;19;20368;-48
2022/04/25 06:35:11;;;;;;;19.87;15.30;;;13.40;92.10;;;;;;7376823;19;20388;-49
2022/04/25 06:37:41;;;;;;;22.30;16.07;;;13.50;92.60;;;;;;7374052;19;20459;-48
2022/04/25 06:40:14;;;;;;;18.77;14.60;;;13.70;92.10;;;;;;7374753;19;20372;-48
2022/04/25 06:42:51;;;;;;;22.70;16.57;;;14.00;91.70;;;;;;7375998;19;20862;-49
2022/04/25 06:45:23;;;;;;;20.33;15.53;;;14.10;89.40;;;;;;7373463;19;20391;-48
2022/04/25 06:47:53;;;;;;;20.07;16.07;;;14.00;89.70;;;;;;7376547;19;20444;-48
2022/04/25 06:50:22;;;;;;;18.40;14.77;;;13.90;90.00;;;;;;7372970;19;20384;-49
2022/04/25 06:52:55;;;;;;;22.97;17.10;;;13.90;91.30;;;;;;7374091;19;20946;-49
2022/04/25 06:55:28;;;;;;;18.93;14.40;;;14.20;90.40;;;;;;7373500;19;20770;-48
2022/04/25 06:58:00;;;;;;;17.77;15.00;;;14.40;89.80;;;;;;7371236;19;20379;-48
2022/04/25 07:00:30;;;;;;;18.87;15.50;;;14.70;88.70;;;;;;7370515;19;20445;-48
2022/04/25 07:02:59;;;;;;;17.80;14.87;;;14.90;86.50;;;;;;7373788;19;20835;-49
2022/04/25 07:05:31;;;;;;;15.70;12.97;;;14.80;83.00;;;;;;7370434;19;20376;-48
2022/04/25 07:08:06;;;;;;;17.70;14.57;;;14.80;82.60;;;;;;7377222;19;20418;-48
2022/04/25 07:10:38;;;;;;;17.83;13.70;;;14.70;83.00;;;;;;7372007;19;20372;-49
2022/04/25 07:13:12;;;;;;;18.53;14.80;;;14.60;82.40;;;;;;7372709;19;20767;-48
2022/04/25 07:15:44;;;;;;;16.80;14.70;;;14.70;82.50;;;;;;7374749;19;20375;-49
2022/04/25 07:18:15;;;;;;;17.63;13.60;;;14.70;82.90;;;;;;7369925;19;20465;-48
2022/04/25 07:20:47;;;;;;;16.73;12.03;;;14.70;80.70;;;;;;7370150;19;20399;-49
2022/04/25 07:28:53;;;;;;;13.60;11.87;;;14.10;77.40;;;;;;7369860;19;20371;-48
2022/04/25 07:31:23;;;;;;;16.00;12.47;;;14.30;80.90;;;;;;7371643;19;20372;-48
2022/04/25 07:33:59;;;;;;;14.80;12.77;;;14.70;78.70;;;;;;7373154;19;20408;-48
2022/04/25 07:36:28;;;;;;;16.53;12.70;;;15.10;78.40;;;;;;7380603;19;20449;-49
2022/04/25 07:39:00;;;;;;;15.30;12.20;;;15.50;76.80;;;;;;7379946;19;21462;-49
2022/04/25 07:41:29;;;;;;;17.40;12.63;;;15.80;75.00;;;;;;7381203;19;20412;-40
2022/04/25 07:44:10;;;;;;;13.70;12.23;;;16.00;75.40;;;;;;7379508;19;20408;-40
2022/04/25 07:46:41;;;;;;;16.80;12.63;;;16.30;74.70;;;;;;7379939;19;20384;-41
2022/04/25 07:49:11;;;;;;;13.20;11.33;;;16.70;72.50;;;;;;7380777;19;20435;-40
2022/04/25 07:51:42;;;;;;;15.43;12.70;;;17.00;70.60;;;;;;7380996;19;20387;-40
2022/04/25 07:54:14;;;;;;;12.90;11.60;;;17.20;68.40;;;;;;7373881;19;20364;-40
2022/04/25 07:56:45;;;;;;;12.20;10.93;;;17.40;67.30;;;;;;7376314;19;20373;-40
2022/04/25 07:59:17;;;;;;;16.07;13.23;;;17.30;64.70;;;;;;7375730;19;20438;-40
2022/04/25 08:01:47;;;;;;;11.73;10.53;;;17.20;62.70;;;;;;7373987;19;21057;-40
2022/04/25 08:04:21;;;;;;;13.33;11.30;;;17.20;65.20;;;;;;7375013;19;20376;-40
2022/04/25 08:06:53;;;;;;;13.10;11.80;;;17.20;63.90;;;;;;7376208;19;21233;-40
2022/04/25 08:09:23;;;;;;;13.60;12.17;;;17.00;61.10;;;;;;7374682;19;20433;-40
2022/04/25 08:17:56;;;;;;;12.23;11.00;;;16.90;64.10;;;;;;7375295;19;20388;-48
2022/04/25 08:20:10;;;;;;;11.30;9.80;;;16.80;65.60;;;;;;7376527;19;20781;-49
2022/04/25 08:22:43;;;;;;;11.83;10.10;;;17.00;66.60;;;;;;7378353;19;20408;-48
2022/04/25 08:25:13;;;;;;;11.17;10.10;;;17.20;63.80;;;;;;7375785;19;20420;-48
2022/04/25 08:27:42;;;;;;;13.13;11.03;;;17.40;60.80;;;;;;7380163;19;20484;-48
2022/04/25 08:30:14;;;;;;;11.70;10.60;;;17.50;60.40;;;;;;7373775;19;21533;-49
2022/04/25 08:32:49;;;;;;;12.20;10.17;;;17.60;59.80;;;;;;7381713;19;21800;-48
2022/04/25 08:35:21;;;;;;;13.27;11.33;;;17.60;59.80;;;;;;7374323;19;20384;-48
2022/04/25 08:37:55;;;;;;;13.40;11.00;;;17.40;58.90;;;;;;7379977;19;20388;-49
2022/04/25 08:40:28;;;;;;;12.33;10.80;;;17.10;60.40;;;;;;7378015;19;21033;-48
2022/04/25 08:43:03;;;;;;;12.07;10.70;;;17.00;62.80;;;;;;7377740;19;20442;-48
2022/04/25 08:45:39;;;;;;;11.80;10.60;;;16.90;64.10;;;;;;7377420;19;21146;-48
2022/04/25 08:48:10;;;;;;;12.37;10.93;;;16.70;62.10;;;;;;7379485;19;21070;-48
2022/04/25 08:50:41;;;;;;;13.10;10.90;;;16.50;63.80;;;;;;7379767;19;21335;-48
2022/04/25 08:53:12;;;;;;;13.73;11.87;;;16.40;65.10;;;;;;7377061;19;20441;-50
2022/04/25 08:55:45;;;;;;;13.17;11.77;;;16.20;66.10;;;;;;7377509;19;20396;-48
2022/04/25 08:58:15;;;;;;;13.53;11.93;;;16.30;66.80;;;;;;7376662;19;20914;-49
2022/04/25 09:00:47;;;;;;;15.70;11.73;;;16.20;66.00;;;;;;7378154;19;20962;-48
2022/04/25 09:03:17;;;;;;;13.60;12.10;;;15.90;65.20;;;;;;7379654;19;20454;-48
2022/04/25 09:05:49;;;;;;;13.20;11.83;;;15.90;66.60;;;;;;7380164;19;20388;-48
2022/04/25 09:08:18;;;;;;;13.57;11.60;;;15.90;67.00;;;;;;7378143;19;20978;-48
2022/04/25 09:12:09;;;;;;;13.23;11.80;;;16.10;67.70;;;;;;7378762;19;20460;-48
2022/04/25 09:13:43;;;;;;;16.00;13.00;;;16.20;65.70;;;;;;7378538;19;20380;-49
2022/04/25 09:16:19;;;;;;;15.10;12.97;;;16.30;66.00;;;;;;7379092;19;20416;-48
2022/04/25 09:18:51;;;;;;;15.20;13.60;;;16.20;65.00;;;;;;7376489;19;20424;-49
2022/04/25 09:21:21;;;;;;;14.30;12.83;;;16.00;67.20;;;;;;7375568;19;20501;-49
2022/04/25 09:23:51;;;;;;;15.30;12.17;;;16.30;66.40;;;;;;7375973;19;20787;-48
2022/04/25 09:26:21;;;;;;;14.20;12.70;;;16.50;65.10;;;;;;7378518;19;20364;-48
2022/04/25 09:28:54;;;;;;;14.60;12.20;;;16.60;63.80;;;;;;7376491;19;20431;-48
2022/04/25 09:31:27;;;;;;;17.47;12.23;;;16.60;64.00;;;;;;7374465;19;20408;-50
2022/04/25 09:34:15;;;;;;;15.10;12.43;;;16.60;63.90;;;;;;7379105;19;20413;-48
2022/04/25 09:36:50;;;;;;;14.73;12.60;;;16.70;64.50;;;;;;7375874;19;20834;-49
2022/04/25 09:39:30;;;;;;;14.40;12.10;;;16.60;63.80;;;;;;7376892;19;20421;-48
2022/04/25 09:42:00;;;;;;;13.00;11.60;;;16.40;63.60;;;;;;7379183;19;20874;-51
2022/04/25 09:44:56;;;;;;;12.57;11.27;;;16.30;63.70;;;;;;7374984;19;20400;-48
2022/04/25 09:47:36;;;;;;;14.27;12.73;;;16.50;65.30;;;;;;7376460;19;20412;-48
2022/04/25 09:50:08;;;;;;;16.20;11.37;;;16.80;63.30;;;;;;7375266;19;20952;-48
2022/04/25 09:52:53;;;;;;;14.83;12.03;;;16.80;64.00;;;;;;7378029;19;20396;-48
2022/04/25 09:55:27;;;;;;;13.30;11.90;;;16.90;62.80;;;;;;7374297;19;20413;-48
2022/04/25 09:57:57;;;;;;;14.03;12.60;;;16.90;62.80;;;;;;7375263;19;20790;-48
2022/04/25 10:00:36;;;;;;;16.10;12.73;;;17.60;62.40;;;;;;7376247;19;20831;-49
2022/04/25 10:03:10;;;;;;;13.83;12.43;;;18.90;57.80;;;;;;7375704;19;20375;-48
2022/04/25 10:05:44;;;;;;;12.50;11.20;;;19.30;56.50;;;;;;7375909;19;21018;-48
2022/04/25 10:08:17;;;;;;;13.20;11.90;;;19.80;55.80;;;;;;7377328;19;20377;-49
2022/04/25 10:10:53;;;;;;;12.20;10.30;;;20.60;53.80;;;;;;7371160;19;20384;-49
2022/04/25 10:13:23;;;;;;;12.33;11.00;;;21.00;52.00;;;;;;7377043;19;21798;-49
2022/04/25 10:15:52;;;;;;;12.47;11.27;;;20.80;50.40;;;;;;7372764;19;20444;-48
2022/04/25 10:18:31;;;;;;;12.67;11.47;;;20.10;50.60;;;;;;7374827;19;20436;-48
2022/04/25 10:21:06;;;;;;;13.20;12.00;;;19.50;52.10;;;;;;7371130;19;20511;-46
2022/04/25 10:23:36;;;;;;;13.37;12.03;;;19.00;53.30;;;;;;7375196;19;20392;-48
2022/04/25 10:26:08;;;;;;;12.47;11.33;;;19.00;54.00;;;;;;7375474;19;20368;-47
2022/04/25 10:28:48;;;;;;;13.87;12.30;;;19.00;54.80;;;;;;7373216;19;20424;-47
2022/04/25 10:31:24;;;;;;;12.77;11.40;;;19.10;53.80;;;;;;7374015;19;20372;-47
2022/04/25 10:34:02;;;;;;;13.37;11.97;;;19.00;53.50;;;;;;7377158;19;20376;-47
2022/04/25 10:36:52;;;;;;;12.67;10.63;;;18.90;54.30;;;;;;7377838;19;20375;-47
2022/04/25 10:39:23;;;;;;;11.57;10.33;;;19.10;54.10;;;;;;7373870;19;20944;-48
2022/04/25 10:44:56;;;;;;;12.40;11.10;;;18.80;53.50;;;;;;7374979;19;20376;-47
2022/04/25 10:47:26;;;;;;;13.53;12.03;;;18.80;53.20;;;;;;7376592;19;20788;-48
2022/04/25 10:50:07;;;;;;;13.73;12.33;;;18.20;54.60;;;;;;7375097;19;20729;-47
2022/04/25 10:52:58;;;;;;;11.60;10.27;;;17.90;55.40;;;;;;7377957;19;20447;-47
2022/04/25 10:55:47;;;;;;;18.57;12.87;;;17.90;56.00;;;;;;7375068;19;20946;-47
2022/04/25 10:58:21;;;;;;;16.70;13.20;;;18.00;56.30;;;;;;7375884;19;20637;-47
2022/04/25 11:00:57;;;;;;;20.87;13.13;;;17.90;55.40;;;;;;7374074;19;20383;-47
2022/04/25 11:03:33;;;;;;;14.73;12.37;;;17.90;56.50;;;;;;7376260;19;20388;-47
2022/04/25 11:06:26;;;;;;;15.73;13.77;;;18.00;55.70;;;;;;7375332;19;20909;-47
2022/04/25 11:08:56;;;;;;;15.97;14.27;;;18.60;54.90;;;;;;7376350;19;20456;-47
2022/04/25 11:11:25;;;;;;;13.87;12.37;;;18.90;54.20;;;;;;7381014;19;20780;-39
2022/04/25 11:14:13;;;;;;;13.80;11.77;;;19.20;53.60;;;;;;7382639;19;20415;-39
2022/04/25 11:16:43;;;;;;;14.10;12.70;;;19.60;52.40;;;;;;7380881;19;20384;-39
2022/04/25 11:19:17;;;;;;;14.83;11.83;;;19.70;51.20;;;;;;7380115;19;20997;-39
2022/04/25 11:21:55;;;;;;;15.70;11.63;;;20.00;51.50;;;;;;7380696;19;20807;-39
2022/04/25 11:24:38;;;;;;;13.10;11.80;;;20.30;50.50;;;;;;7383670;19;20403;-40
2022/04/25 11:27:12;;;;;;;12.07;10.90;;;20.40;49.80;;;;;;7381333;19;20475;-39
2022/04/25 11:29:47;;;;;;;13.27;11.90;;;20.40;49.70;;;;;;7381159;19;20404;-40
2022/04/25 11:32:35;;;;;;;13.60;12.13;;;20.00;48.50;;;;;;7382515;19;20382;-39
2022/04/25 11:35:07;;;;;;;15.60;11.77;;;19.50;49.70;;;;;;7382624;19;20384;-39
2022/04/25 11:37:39;;;;;;;12.60;11.27;;;19.30;50.90;;;;;;7381756;19;20812;-39
2022/04/25 11:40:10;;;;;;;13.77;12.00;;;19.00;51.70;;;;;;7380188;19;20375;-47
2022/04/25 11:42:44;;;;;;;12.80;11.47;;;19.00;51.70;;;;;;7381480;19;20451;-47
2022/04/25 11:45:14;;;;;;;12.87;11.57;;;18.80;51.70;;;;;;7379874;19;20383;-47
2022/04/25 11:47:44;;;;;;;14.33;11.50;;;18.60;53.30;;;;;;7378949;19;20408;-47
2022/04/25 11:50:14;;;;;;;12.30;11.20;;;18.50;53.20;;;;;;7381966;19;20500;-47
2022/04/25 11:52:51;;;;;;;10.73;9.70;;;18.40;53.40;;;;;;7381126;19;20414;-47
2022/04/25 11:55:38;;;;;;;12.93;11.53;;;18.30;53.80;;;;;;7378757;19;20960;-47
2022/04/25 11:58:08;;;;;;;12.90;11.60;;;18.20;54.80;;;;;;7382006;19;20845;-47
2022/04/25 12:00:38;;;;;;;14.40;11.27;;;18.10;56.40;;;;;;7377355;19;20463;-47
2022/04/25 12:03:07;;;;;;;12.13;10.50;;;17.90;58.30;;;;;;7381656;19;20379;-47
2022/04/25 12:05:37;;;;;;;12.10;10.57;;;17.70;59.80;;;;;;7382074;19;20379;-47
2022/04/25 12:16:35;;;;;;;15.67;12.13;;;16.80;66.40;;;;;;7375547;19;20494;-49
2022/04/25 12:19:12;;;;;;;15.83;13.40;;;16.90;68.00;;;;;;7379458;19;21049;-48
2022/04/25 12:21:47;;;;;;;15.63;12.10;;;16.80;68.50;;;;;;7380497;19;20370;-48
2022/04/25 12:24:23;;;;;;;14.07;12.57;;;16.80;70.20;;;;;;7375684;19;20404;-48
2022/04/25 12:26:52;;;;;;;15.17;13.50;;;16.90;70.30;;;;;;7381850;19;20387;-48
2022/04/25 12:29:25;;;;;;;14.80;13.07;;;17.00;72.30;;;;;;7378834;19;21089;-48
2022/04/25 12:31:58;;;;;;;13.80;12.30;;;17.00;74.50;;;;;;7377875;19;20388;-48
2022/04/25 12:34:35;;;;;;;16.33;14.63;;;17.10;71.10;;;;;;7379715;19;20368;-48
2022/04/25 12:37:07;;;;;;;17.50;14.07;;;17.10;71.90;;;;;;7377165;19;20384;-48
2022/04/25 12:40:01;;;;;;;17.10;13.60;;;17.20;72.80;;;;;;7378427;19;20399;-49
2022/04/25 12:42:46;;;;;;;17.73;14.03;;;17.40;70.70;;;;;;7378053;19;20969;-48
2022/04/25 12:45:16;;;;;;;14.70;12.73;;;17.60;70.30;;;;;;7376062;19;20387;-48
2022/04/25 12:47:55;;;;;;;14.20;12.50;;;17.90;70.40;;;;;;7376750;19;21054;-48
2022/04/25 12:50:43;;;;;;;13.63;12.17;;;17.90;69.20;;;;;;7378673;19;20380;-48
2022/04/25 12:53:17;;;;;;;16.67;12.73;;;17.90;71.10;;;;;;7379231;19;20433;-48
2022/04/25 12:55:51;;;;;;;14.93;13.20;;;17.70;69.70;;;;;;7378761;19;20376;-48
2022/04/25 12:58:22;;;;;;;14.20;12.60;;;17.60;66.80;;;;;;7378403;19;20383;-49
2022/04/25 13:00:54;;;;;;;14.33;12.93;;;17.50;67.00;;;;;;7374760;19;20391;-48
2022/04/25 13:03:26;;;;;;;17.57;12.63;;;17.60;67.90;;;;;;7378069;19;20412;-48
2022/04/25 13:05:56;;;;;;;12.60;11.30;;;17.60;65.80;;;;;;7378534;19;21381;-47
2022/04/25 13:08:25;;;;;;;14.10;12.40;;;17.60;68.40;;;;;;7377764;19;20442;-48
2022/04/25 13:10:58;;;;;;;15.70;13.27;;;17.70;67.70;;;;;;7379282;19;20879;-48
2022/04/25 13:13:27;;;;;;;13.43;12.03;;;17.70;68.40;;;;;;7377526;19;20392;-49
2022/04/25 13:15:57;;;;;;;13.57;12.10;;;17.50;68.60;;;;;;7377323;19;20449;-48
2022/04/25 13:18:27;;;;;;;13.10;11.27;;;17.60;68.50;;;;;;7350243;19;20468;-48
2022/04/25 13:20:56;;;;;;;11.93;10.60;;;18.00;67.70;;;;;;7375703;19;20807;-48
2022/04/25 13:23:30;;;;;;;12.33;10.90;;;18.80;66.90;;;;;;7378657;19;21305;-48
2022/04/25 13:26:02;;;;;;;8.80;8.00;;;19.80;63.00;;;;;;7379027;19;20380;-48